OAK weather

Metropolitan Oakland International Airport
Oakland, California, United States

Public forecast

Using degrees Fahrenheit for public forecast. Weather courtesy of forecast.io.

Current aviation weather report (METAR) for Metropolitan Oakland International Airport

Retrieved 2020/07/12 21:53 UTC (45 minutes ago):

KOAK 122153Z 30015KT 10SM CLR 26/11 A2988 RMK AO2 SLP118 T02610111

Aviation forecast (TAF) for Metropolitan Oakland International Airport

Retrieved 2020/07/12 18:28 UTC (4 hours ago):

TAF KOAK 121726Z 1218/1324 28008KT P6SM SKC FM122100 28011KT P6SM SKC FM130000 28013G18KT P6SM FEW008 FM130500 27009KT P6SM SCT008 FM130800 26007KT P6SM OVC008 FM131800 25008KT P6SM FEW010 FM132000 26011KT P6SM SKC FM132300 28013G18KT P6SM SKC